createdAt,value
2017-05-16T00:00:12.766Z,0
2017-05-16T00:01:21.746Z,0
2017-05-16T00:02:31.177Z,0
2017-05-16T00:03:40.819Z,0
2017-05-16T00:04:50.335Z,0
2017-05-16T00:05:59.620Z,0
2017-05-16T00:07:09.116Z,0
2017-05-16T00:08:19.842Z,0
2017-05-16T00:09:29.712Z,0
2017-05-16T00:10:39.731Z,0
2017-05-16T00:11:49.800Z,0
2017-05-16T00:12:59.859Z,0
2017-05-16T00:14:10.114Z,0
2017-05-16T00:15:19.957Z,0
2017-05-16T00:16:30.184Z,0
2017-05-16T00:17:39.153Z,0
2017-05-16T00:18:48.272Z,0
2017-05-16T00:20:00.049Z,0
2017-05-16T00:21:09.152Z,0
2017-05-16T00:22:18.273Z,0
2017-05-16T00:23:28.159Z,0
2017-05-16T00:24:38.073Z,0
2017-05-16T00:25:47.577Z,0
2017-05-16T00:26:56.993Z,0
2017-05-16T00:28:06.317Z,0
2017-05-16T00:29:15.726Z,0
2017-05-16T00:30:24.893Z,0
2017-05-16T00:31:34.617Z,0
2017-05-16T00:32:44.446Z,0
2017-05-16T00:33:54.076Z,0
2017-05-16T00:35:03.672Z,0
2017-05-16T00:36:13.154Z,0
2017-05-16T00:37:22.749Z,0
2017-05-16T00:38:32.118Z,0
2017-05-16T00:39:41.194Z,0
2017-05-16T00:40:50.503Z,0
2017-05-16T00:42:00.226Z,0
2017-05-16T00:43:10.562Z,0
2017-05-16T00:44:19.747Z,0
2017-05-16T00:45:29.302Z,0
2017-05-16T00:46:39.681Z,0
2017-05-16T00:47:48.735Z,0
2017-05-16T00:48:57.995Z,0
2017-05-16T00:50:06.951Z,0
2017-05-16T00:51:15.999Z,0
2017-05-16T00:52:24.961Z,0
2017-05-16T00:53:36.274Z,0
2017-05-16T00:54:53.250Z,0
2017-05-16T00:56:04.331Z,0
2017-05-16T00:57:16.079Z,0
2017-05-16T00:58:27.894Z,0
2017-05-16T00:59:36.854Z,0
2017-05-16T01:00:46.873Z,0
2017-05-16T01:01:56.841Z,0
2017-05-16T01:03:06.137Z,0
2017-05-16T01:04:16.062Z,0
2017-05-16T01:05:26.817Z,0
2017-05-16T01:06:37.965Z,0
2017-05-16T01:07:48.486Z,0
2017-05-16T01:08:59.483Z,0
2017-05-16T01:10:10.297Z,0
2017-05-16T01:11:20.354Z,0
2017-05-16T01:12:29.806Z,0
2017-05-16T01:13:39.201Z,0
2017-05-16T01:14:48.163Z,0
2017-05-16T01:15:57.453Z,0
2017-05-16T01:17:06.414Z,0
2017-05-16T01:18:31.745Z,0
2017-05-16T01:19:41.120Z,0
2017-05-16T01:20:50.302Z,0
2017-05-16T01:22:00.270Z,0
2017-05-16T01:23:11.260Z,0
2017-05-16T01:24:21.324Z,0
2017-05-16T01:25:31.780Z,0
2017-05-16T01:26:40.914Z,0
2017-05-16T01:27:50.459Z,0
2017-05-16T01:29:00.689Z,0
2017-05-16T01:30:10.154Z,0
2017-05-16T01:31:19.523Z,0
2017-05-16T01:32:28.818Z,0
2017-05-16T01:33:38.722Z,0
2017-05-16T01:34:50.465Z,0
2017-05-16T01:36:01.406Z,0
2017-05-16T01:37:12.145Z,0
2017-05-16T01:38:22.571Z,0
2017-05-16T01:39:33.940Z,0
2017-05-16T01:40:43.859Z,0
2017-05-16T01:41:52.901Z,0
2017-05-16T01:43:02.436Z,0
2017-05-16T01:44:12.688Z,0
2017-05-16T01:45:22.149Z,0
2017-05-16T01:46:31.946Z,0
2017-05-16T01:47:41.485Z,0
2017-05-16T01:48:51.727Z,0
2017-05-16T01:50:01.565Z,0
2017-05-16T01:51:10.530Z,0
2017-05-16T01:52:19.746Z,0
2017-05-16T01:53:29.907Z,0
2017-05-16T01:54:38.870Z,0
2017-05-16T01:55:48.032Z,0
2017-05-16T01:56:56.993Z,0
2017-05-16T01:58:06.214Z,0
2017-05-16T01:59:15.178Z,0
2017-05-16T02:00:24.135Z,0
2017-05-16T02:01:33.094Z,0
2017-05-16T02:02:42.633Z,0
2017-05-16T02:03:51.845Z,0
2017-05-16T02:05:00.810Z,0
2017-05-16T02:06:09.771Z,0
2017-05-16T02:07:18.732Z,0
2017-05-16T02:08:27.775Z,0
2017-05-16T02:09:36.982Z,0
2017-05-16T02:10:46.024Z,0
2017-05-16T02:11:55.315Z,0
2017-05-16T02:13:04.278Z,0
2017-05-16T02:14:13.241Z,0
2017-05-16T02:15:22.448Z,0
2017-05-16T02:16:31.414Z,0
2017-05-16T02:17:40.386Z,0
2017-05-16T02:18:49.348Z,0
2017-05-16T02:19:58.313Z,0
2017-05-16T02:21:07.525Z,0
2017-05-16T02:22:16.665Z,0
2017-05-16T02:23:25.625Z,0
2017-05-16T02:24:34.674Z,0
2017-05-16T02:25:44.207Z,0
2017-05-16T02:26:53.418Z,0
2017-05-16T02:28:02.381Z,0
2017-05-16T02:29:11.351Z,0
2017-05-16T02:30:20.694Z,0
2017-05-16T02:31:29.655Z,0
2017-05-16T02:32:38.863Z,0
2017-05-16T02:33:47.910Z,0
2017-05-16T02:34:56.875Z,0
2017-05-16T02:36:05.933Z,0
2017-05-16T02:37:14.897Z,0
2017-05-16T02:38:25.304Z,0
2017-05-16T02:39:34.594Z,0
2017-05-16T02:40:43.563Z,0
2017-05-16T02:41:52.526Z,0
2017-05-16T02:43:01.492Z,0
2017-05-16T02:44:10.709Z,4
2017-05-16T02:45:19.671Z,4
2017-05-16T02:46:29.044Z,0
2017-05-16T02:47:38.011Z,0
2017-05-16T02:48:47.204Z,4
2017-05-16T02:49:56.418Z,4
2017-05-16T02:51:05.469Z,4
2017-05-16T02:52:14.424Z,4
2017-05-16T02:53:23.396Z,4
2017-05-16T02:54:32.351Z,8
2017-05-16T02:55:41.562Z,4
2017-05-16T02:56:50.529Z,8
2017-05-16T02:57:59.492Z,4
2017-05-16T02:59:08.535Z,8
2017-05-16T03:00:17.494Z,12
2017-05-16T03:01:26.708Z,8
2017-05-16T03:02:37.170Z,12
2017-05-16T03:03:46.136Z,12
2017-05-16T03:04:55.302Z,16
2017-05-16T03:06:04.590Z,12
2017-05-16T03:07:13.801Z,16
2017-05-16T03:08:22.812Z,16
2017-05-16T03:09:32.012Z,20
2017-05-16T03:10:40.975Z,20
2017-05-16T03:11:49.931Z,20
2017-05-16T03:12:59.193Z,28
2017-05-16T03:14:08.158Z,28
2017-05-16T03:15:17.112Z,32
2017-05-16T03:16:26.158Z,36
2017-05-16T03:17:35.121Z,40
2017-05-16T03:18:44.335Z,48
2017-05-16T03:19:53.296Z,56
2017-05-16T03:21:02.264Z,60
2017-05-16T03:22:11.310Z,68
2017-05-16T03:23:20.269Z,76
2017-05-16T03:24:29.482Z,84
2017-05-16T03:25:38.444Z,96
2017-05-16T03:26:47.414Z,104
2017-05-16T03:27:56.388Z,120
2017-05-16T03:29:05.432Z,128
2017-05-16T03:30:14.698Z,140
2017-05-16T03:31:23.655Z,148
2017-05-16T03:32:32.625Z,152
2017-05-16T03:33:41.589Z,156
2017-05-16T03:34:50.555Z,156
2017-05-16T03:35:59.812Z,160
2017-05-16T03:37:08.773Z,160
2017-05-16T03:38:17.740Z,156
2017-05-16T03:39:26.709Z,148
2017-05-16T03:40:35.684Z,148
2017-05-16T03:41:44.941Z,144
2017-05-16T03:42:53.901Z,148
2017-05-16T03:44:02.865Z,152
2017-05-16T03:45:11.821Z,156
2017-05-16T03:46:21.413Z,156
2017-05-16T03:47:45.238Z,156
2017-05-16T03:48:54.201Z,152
2017-05-16T03:50:03.169Z,152
2017-05-16T03:51:12.128Z,152
2017-05-16T03:52:21.104Z,156
2017-05-16T03:53:30.379Z,168
2017-05-16T03:54:39.343Z,176
2017-05-16T03:55:48.303Z,184
2017-05-16T03:56:57.357Z,192
2017-05-16T03:58:06.317Z,192
2017-05-16T03:59:15.576Z,200
2017-05-16T04:00:24.542Z,212
2017-05-16T04:01:33.678Z,216
2017-05-16T04:02:42.645Z,216
2017-05-16T04:03:51.696Z,216
2017-05-16T04:05:00.961Z,212
2017-05-16T04:06:09.919Z,208
2017-05-16T04:07:18.877Z,204
2017-05-16T04:08:27.846Z,200
2017-05-16T04:09:37.180Z,200
2017-05-16T04:10:46.389Z,208
2017-05-16T04:11:55.672Z,220
2017-05-16T04:13:04.629Z,236
2017-05-16T04:14:13.593Z,244
2017-05-16T04:15:22.552Z,244
2017-05-16T04:16:31.810Z,244
2017-05-16T04:17:40.780Z,248
2017-05-16T04:18:50.943Z,248
2017-05-16T04:19:59.902Z,244
2017-05-16T04:21:08.864Z,244
2017-05-16T04:22:18.261Z,240
2017-05-16T04:23:27.223Z,236
2017-05-16T04:24:36.191Z,236
2017-05-16T04:25:45.151Z,232
2017-05-16T04:26:54.112Z,232
2017-05-16T04:28:03.337Z,216
2017-05-16T04:29:12.304Z,212
2017-05-16T04:30:21.588Z,208
2017-05-16T04:31:30.560Z,208
2017-05-16T04:32:39.609Z,208
2017-05-16T04:33:48.889Z,208
2017-05-16T04:34:58.260Z,208
2017-05-16T04:36:07.221Z,216
2017-05-16T04:37:16.187Z,228
2017-05-16T04:38:25.153Z,252
2017-05-16T04:39:34.411Z,280
2017-05-16T04:40:43.366Z,312
2017-05-16T04:41:52.328Z,344
2017-05-16T04:43:01.300Z,384
2017-05-16T04:44:10.347Z,408
2017-05-16T04:45:19.882Z,440
2017-05-16T04:46:28.848Z,464
2017-05-16T04:47:37.809Z,484
2017-05-16T04:48:46.775Z,484
2017-05-16T04:49:55.825Z,516
2017-05-16T04:51:05.090Z,544
2017-05-16T04:52:14.046Z,560
2017-05-16T04:53:23.011Z,580
2017-05-16T04:54:32.294Z,600
2017-05-16T04:55:41.392Z,636
2017-05-16T04:56:50.650Z,656
2017-05-16T04:57:59.613Z,628
2017-05-16T04:59:08.575Z,632
2017-05-16T05:00:17.539Z,588
2017-05-16T05:01:26.501Z,612
2017-05-16T05:02:35.896Z,668
2017-05-16T05:03:44.958Z,656
2017-05-16T05:04:53.918Z,680
2017-05-16T05:06:02.878Z,676
2017-05-16T05:07:11.838Z,780
2017-05-16T05:08:22.349Z,784
2017-05-16T05:09:31.519Z,784
2017-05-16T05:10:40.488Z,824
2017-05-16T05:11:49.449Z,896
2017-05-16T05:12:58.404Z,868
2017-05-16T05:14:07.721Z,852
2017-05-16T05:15:16.851Z,860
2017-05-16T05:16:25.812Z,912
2017-05-16T05:17:34.766Z,948
2017-05-16T05:18:43.729Z,1008
2017-05-16T05:19:53.049Z,1064
2017-05-16T05:21:02.009Z,1128
2017-05-16T05:22:11.023Z,1188
2017-05-16T05:23:19.987Z,1284
2017-05-16T05:24:28.950Z,1424
2017-05-16T05:25:38.262Z,1424
2017-05-16T05:26:47.224Z,1440
2017-05-16T05:27:56.511Z,1360
2017-05-16T05:29:05.558Z,1256
2017-05-16T05:30:14.565Z,1172
2017-05-16T05:31:23.773Z,1268
2017-05-16T05:32:32.734Z,1216
2017-05-16T05:33:41.699Z,1236
2017-05-16T05:34:51.191Z,1396
2017-05-16T05:36:00.158Z,1472
2017-05-16T05:37:09.542Z,1592
2017-05-16T05:38:18.511Z,1644
2017-05-16T05:39:27.811Z,1604
2017-05-16T05:40:36.873Z,1616
2017-05-16T05:41:46.878Z,1588
2017-05-16T05:42:56.140Z,1716
2017-05-16T05:44:05.524Z,1756
2017-05-16T05:45:14.488Z,1704
2017-05-16T05:46:23.652Z,1772
2017-05-16T05:47:32.612Z,1732
2017-05-16T05:48:41.875Z,1732
2017-05-16T05:49:50.844Z,1724
2017-05-16T05:50:59.846Z,1660
2017-05-16T05:52:08.908Z,1540
2017-05-16T05:53:18.173Z,1472
2017-05-16T05:54:27.636Z,1436
2017-05-16T05:55:36.594Z,1456
2017-05-16T05:56:45.556Z,1484
2017-05-16T05:57:54.532Z,1532
2017-05-16T05:59:05.160Z,1576
2017-05-16T06:00:17.586Z,1540
2017-05-16T06:01:29.640Z,1588
2017-05-16T06:02:41.244Z,1660
2017-05-16T06:03:50.213Z,1652
2017-05-16T06:04:59.175Z,1724
2017-05-16T06:06:08.681Z,1784
2017-05-16T06:07:17.649Z,1760
2017-05-16T06:08:26.790Z,1684
2017-05-16T06:09:35.753Z,1572
2017-05-16T06:10:44.870Z,1448
2017-05-16T06:11:54.188Z,1264
2017-05-16T06:13:03.728Z,1264
2017-05-16T06:14:12.729Z,1300
2017-05-16T06:15:21.691Z,1432
2017-05-16T06:16:30.652Z,1520
2017-05-16T06:17:39.908Z,1620
2017-05-16T06:18:48.871Z,1732
2017-05-16T06:19:57.834Z,1892
2017-05-16T06:21:06.810Z,2088
2017-05-16T06:22:15.859Z,2092
2017-05-16T06:23:25.829Z,2200
2017-05-16T06:24:35.997Z,2332
2017-05-16T06:25:45.131Z,2424
2017-05-16T06:26:54.341Z,2436
2017-05-16T06:28:03.307Z,2364
2017-05-16T06:29:12.589Z,2396
2017-05-16T06:30:21.561Z,2372
2017-05-16T06:31:30.758Z,2324
2017-05-16T06:32:39.725Z,2264
2017-05-16T06:33:48.681Z,2392
2017-05-16T06:34:59.236Z,2376
2017-05-16T06:36:09.094Z,2384
2017-05-16T06:37:19.361Z,2388
2017-05-16T06:38:28.835Z,2380
2017-05-16T06:39:38.359Z,2380
2017-05-16T06:40:49.500Z,2384
2017-05-16T06:41:59.375Z,2384
2017-05-16T06:43:08.345Z,2380
2017-05-16T06:44:17.311Z,2352
2017-05-16T06:45:26.272Z,2340
2017-05-16T06:46:35.534Z,2344
2017-05-16T06:47:44.500Z,2364
2017-05-16T06:48:53.462Z,2400
2017-05-16T06:50:02.427Z,2400
2017-05-16T06:51:11.711Z,2416
2017-05-16T06:52:21.052Z,2428
2017-05-16T06:53:30.217Z,2428
2017-05-16T06:54:39.185Z,2440
2017-05-16T06:55:48.147Z,2448
2017-05-16T06:56:57.111Z,2452
2017-05-16T06:58:06.426Z,2452
2017-05-16T06:59:15.390Z,2440
2017-05-16T07:00:24.352Z,2420
2017-05-16T07:01:33.318Z,2368
2017-05-16T07:02:42.283Z,2280
2017-05-16T07:03:52.082Z,2228
2017-05-16T07:05:01.042Z,2220
2017-05-16T07:06:10.005Z,2276
2017-05-16T07:07:18.979Z,2312
2017-05-16T07:08:27.942Z,2368
2017-05-16T07:09:37.231Z,2424
2017-05-16T07:10:46.414Z,2432
2017-05-16T07:11:55.695Z,2492
2017-05-16T07:13:04.666Z,2520
2017-05-16T07:14:13.832Z,2516
2017-05-16T07:15:23.165Z,2508
2017-05-16T07:16:32.980Z,2448
2017-05-16T07:17:41.958Z,2396
2017-05-16T07:18:51.091Z,2348
2017-05-16T07:20:01.269Z,2356
2017-05-16T07:21:11.629Z,2476
2017-05-16T07:22:21.679Z,2556
2017-05-16T07:23:31.750Z,2620
2017-05-16T07:24:42.005Z,2560
2017-05-16T07:25:53.032Z,2384
2017-05-16T07:27:03.392Z,2312
2017-05-16T07:28:13.477Z,2412
2017-05-16T07:29:23.359Z,2512
2017-05-16T07:30:33.248Z,2600
2017-05-16T07:31:43.159Z,2716
2017-05-16T07:32:53.942Z,2816
2017-05-16T07:34:03.647Z,2932
2017-05-16T07:35:13.380Z,3024
2017-05-16T07:36:23.374Z,3016
2017-05-16T07:37:33.335Z,3100
2017-05-16T07:38:43.499Z,3148
2017-05-16T07:39:53.028Z,3112
2017-05-16T07:41:02.898Z,3104
2017-05-16T07:42:12.800Z,3072
2017-05-16T07:43:23.731Z,3144
2017-05-16T07:44:34.611Z,3208
2017-05-16T07:45:44.603Z,3216
2017-05-16T07:46:54.845Z,3112
2017-05-16T07:48:06.119Z,3096
2017-05-16T07:49:15.638Z,3152
2017-05-16T07:50:25.100Z,3228
2017-05-16T07:51:34.074Z,3280
2017-05-16T07:52:43.449Z,3288
2017-05-16T07:53:53.464Z,3360
2017-05-16T07:55:03.608Z,3476
2017-05-16T07:56:14.055Z,3520
2017-05-16T07:57:24.033Z,3472
2017-05-16T07:58:33.163Z,3508
2017-05-16T07:59:42.176Z,3508
2017-05-16T08:00:51.517Z,3572
2017-05-16T08:02:00.877Z,3644
2017-05-16T08:03:09.895Z,3880
2017-05-16T08:04:19.251Z,4028
2017-05-16T08:05:28.390Z,4132
2017-05-16T08:06:37.445Z,4280
2017-05-16T08:07:46.833Z,4420
2017-05-16T08:08:55.807Z,4304
2017-05-16T08:10:04.863Z,4180
2017-05-16T08:11:15.623Z,4104
2017-05-16T08:12:24.605Z,3708
2017-05-16T08:13:34.018Z,3368
2017-05-16T08:14:43.408Z,3188
2017-05-16T08:15:52.392Z,3008
2017-05-16T08:17:01.653Z,2912
2017-05-16T08:18:10.648Z,2952
2017-05-16T08:19:19.962Z,3112
2017-05-16T08:20:29.921Z,3204
2017-05-16T08:21:39.208Z,3184
2017-05-16T08:22:48.266Z,3172
2017-05-16T08:23:57.413Z,3208
2017-05-16T08:25:06.626Z,3288
2017-05-16T08:26:15.939Z,3576
2017-05-16T08:27:24.904Z,3712
2017-05-16T08:28:33.864Z,3772
2017-05-16T08:29:43.036Z,3876
2017-05-16T08:30:52.310Z,3924
2017-05-16T08:32:01.274Z,4088
2017-05-16T08:33:10.240Z,4180
2017-05-16T08:34:19.259Z,4256
2017-05-16T08:35:28.222Z,4120
2017-05-16T08:36:43.091Z,3928
2017-05-16T08:37:53.471Z,3756
2017-05-16T08:39:02.439Z,3744
2017-05-16T08:40:11.617Z,3684
2017-05-16T08:41:20.585Z,3676
2017-05-16T08:42:29.955Z,3724
2017-05-16T08:43:38.918Z,3768
2017-05-16T08:44:47.972Z,3804
2017-05-16T08:45:56.929Z,3816
2017-05-16T08:47:06.029Z,3808
2017-05-16T08:48:15.391Z,3840
2017-05-16T08:49:24.533Z,3980
2017-05-16T08:50:34.832Z,3896
2017-05-16T08:51:46.394Z,3796
2017-05-16T08:52:57.371Z,3692
2017-05-16T08:54:08.732Z,3620
2017-05-16T08:55:19.220Z,3676
2017-05-16T08:56:28.722Z,3748
2017-05-16T08:57:37.771Z,3728
2017-05-16T08:58:46.741Z,3584
2017-05-16T08:59:56.007Z,3416
2017-05-16T09:01:04.970Z,3288
2017-05-16T09:02:13.939Z,3240
2017-05-16T09:03:22.904Z,3208
2017-05-16T09:04:31.872Z,3140
2017-05-16T09:05:41.141Z,3076
2017-05-16T09:06:50.103Z,2872
2017-05-16T09:07:59.086Z,2844
2017-05-16T09:09:08.051Z,2848
2017-05-16T09:10:17.017Z,2856
2017-05-16T09:11:26.573Z,2844
2017-05-16T09:12:35.538Z,2924
2017-05-16T09:13:44.506Z,2848
2017-05-16T09:14:53.471Z,2748
2017-05-16T09:16:02.443Z,2668
2017-05-16T09:17:11.727Z,2616
2017-05-16T09:18:20.695Z,2588
2017-05-16T09:19:29.664Z,2532
2017-05-16T09:20:38.755Z,2520
2017-05-16T09:21:48.097Z,2592
2017-05-16T09:22:57.308Z,2772
2017-05-16T09:24:06.282Z,2972
2017-05-16T09:25:15.328Z,3120
2017-05-16T09:26:24.345Z,3256
2017-05-16T09:27:33.315Z,3244
2017-05-16T09:28:42.583Z,3188
2017-05-16T09:29:51.643Z,3136
2017-05-16T09:31:00.606Z,3044
2017-05-16T09:32:09.745Z,2984
2017-05-16T09:33:18.710Z,2960
2017-05-16T09:34:28.120Z,2932
2017-05-16T09:35:37.087Z,2956
2017-05-16T09:36:46.054Z,2940
2017-05-16T09:37:55.134Z,3060
2017-05-16T09:39:04.104Z,3060
2017-05-16T09:40:13.555Z,3132
2017-05-16T09:41:22.608Z,3220
2017-05-16T09:42:31.574Z,3248
2017-05-16T09:43:40.637Z,3396
2017-05-16T09:44:50.132Z,3252
2017-05-16T09:45:59.426Z,3220
2017-05-16T09:47:09.647Z,3204
2017-05-16T09:48:21.097Z,3160
2017-05-16T09:49:30.462Z,3244
2017-05-16T09:50:39.484Z,3096
2017-05-16T09:51:48.847Z,3104
2017-05-16T09:52:57.896Z,3024
2017-05-16T09:54:06.858Z,3040
2017-05-16T09:55:15.914Z,2908
2017-05-16T09:56:24.959Z,2848
2017-05-16T09:57:34.223Z,2724
2017-05-16T09:58:43.190Z,2728
2017-05-16T09:59:52.158Z,2816
2017-05-16T10:01:01.130Z,2884
2017-05-16T10:02:10.227Z,2856
2017-05-16T10:03:19.444Z,2788
2017-05-16T10:04:28.496Z,2732
2017-05-16T10:05:37.464Z,2792
2017-05-16T10:06:46.426Z,2852
2017-05-16T10:07:55.403Z,2928
2017-05-16T10:09:04.996Z,3008
2017-05-16T10:10:13.965Z,2992
2017-05-16T10:11:22.930Z,2896
2017-05-16T10:12:31.896Z,2860
2017-05-16T10:13:40.952Z,2904
2017-05-16T10:14:50.215Z,2968
2017-05-16T10:15:59.176Z,3120
2017-05-16T10:17:08.141Z,3268
2017-05-16T10:18:17.191Z,3456
2017-05-16T10:19:26.168Z,3472
2017-05-16T10:20:35.704Z,3420
2017-05-16T10:21:44.667Z,3332
2017-05-16T10:22:53.636Z,3352
2017-05-16T10:24:02.598Z,3328
2017-05-16T10:25:12.177Z,3316
2017-05-16T10:26:21.582Z,3596
2017-05-16T10:27:30.557Z,3532
2017-05-16T10:28:40.741Z,3552
2017-05-16T10:29:50.923Z,3656
2017-05-16T10:30:59.899Z,3588
2017-05-16T10:32:10.997Z,3600
2017-05-16T10:33:20.175Z,3580
2017-05-16T10:34:29.276Z,3688
2017-05-16T10:37:21.976Z,3452
2017-05-16T10:38:36.165Z,3188
2017-05-16T10:39:50.858Z,3016
2017-05-16T10:41:09.147Z,3056
2017-05-16T10:42:24.134Z,3172
2017-05-16T10:43:39.902Z,3220
2017-05-16T10:44:51.056Z,3236
2017-05-16T10:46:00.315Z,3068
2017-05-16T10:47:09.379Z,2896
2017-05-16T10:48:18.660Z,2680
2017-05-16T10:49:28.473Z,2660
2017-05-16T10:50:38.149Z,2740
2017-05-16T10:51:47.561Z,2832
2017-05-16T10:52:56.529Z,2876
2017-05-16T10:54:05.925Z,3108
2017-05-16T10:55:17.138Z,3296
2017-05-16T10:56:26.747Z,3368
2017-05-16T10:57:37.174Z,3224
2017-05-16T10:58:53.159Z,3004
2017-05-16T11:00:13.584Z,3044
2017-05-16T11:01:23.977Z,3064
2017-05-16T11:02:33.198Z,3116
2017-05-16T11:03:49.951Z,2944
2017-05-16T11:05:02.910Z,3020
2017-05-16T11:06:19.465Z,3316
2017-05-16T11:07:34.839Z,3440
2017-05-16T11:08:46.561Z,3476
2017-05-16T11:09:57.801Z,3432
2017-05-16T11:11:11.212Z,3468
2017-05-16T11:12:21.557Z,3224
2017-05-16T11:13:30.525Z,2892
2017-05-16T11:14:39.490Z,2672
2017-05-16T11:15:48.754Z,2584
2017-05-16T11:16:57.717Z,2600
2017-05-16T11:18:06.697Z,2664
2017-05-16T11:19:15.748Z,2668
2017-05-16T11:20:24.806Z,2788
2017-05-16T11:21:34.075Z,3028
2017-05-16T11:22:43.037Z,3464
2017-05-16T11:23:51.999Z,3160
2017-05-16T11:25:00.962Z,3080
2017-05-16T11:26:10.011Z,3076
2017-05-16T11:27:19.326Z,3128
2017-05-16T11:28:28.290Z,2828
2017-05-16T11:29:37.255Z,2388
2017-05-16T11:30:46.221Z,2160
2017-05-16T11:31:55.187Z,2164
2017-05-16T11:33:04.777Z,2220
2017-05-16T11:34:13.745Z,2368
2017-05-16T11:35:22.711Z,2256
2017-05-16T11:36:31.687Z,2128
2017-05-16T11:37:40.735Z,2200
2017-05-16T11:38:50.325Z,2144
2017-05-16T11:39:59.374Z,2152
2017-05-16T11:41:08.340Z,2224
2017-05-16T11:42:17.396Z,2232
2017-05-16T11:43:26.365Z,2284
2017-05-16T11:44:35.632Z,2324
2017-05-16T11:45:44.654Z,2580
2017-05-16T11:46:53.626Z,2980
2017-05-16T11:48:02.591Z,3276
2017-05-16T11:49:11.557Z,3484
2017-05-16T11:50:20.821Z,3604
2017-05-16T11:51:30.101Z,3712
2017-05-16T11:52:39.063Z,3732
2017-05-16T11:53:48.119Z,3620
2017-05-16T11:54:57.085Z,3720
2017-05-16T11:56:06.398Z,3832
2017-05-16T11:57:15.362Z,3884
2017-05-16T11:58:24.418Z,3688
2017-05-16T11:59:33.469Z,3240
2017-05-16T12:00:42.456Z,2720
2017-05-16T12:01:51.674Z,2328
2017-05-16T12:03:00.962Z,2436
2017-05-16T12:04:10.248Z,2692
2017-05-16T12:05:19.265Z,3020
2017-05-16T12:06:28.229Z,3184
2017-05-16T12:07:37.492Z,3408
2017-05-16T12:08:46.555Z,3392
2017-05-16T12:09:55.520Z,3320
2017-05-16T12:11:04.493Z,3372
2017-05-16T12:12:13.454Z,3268
2017-05-16T12:13:22.807Z,3000
2017-05-16T12:14:31.774Z,2452
2017-05-16T12:15:40.828Z,1972
2017-05-16T12:16:49.789Z,1696
2017-05-16T12:17:58.752Z,1584
2017-05-16T12:19:08.097Z,1712
2017-05-16T12:20:17.065Z,1824
2017-05-16T12:21:26.115Z,1936
2017-05-16T12:22:35.079Z,1872
2017-05-16T12:23:44.043Z,1788
2017-05-16T12:24:53.306Z,1692
2017-05-16T12:26:02.360Z,1564
2017-05-16T12:27:11.329Z,1488
2017-05-16T12:28:20.297Z,1472
2017-05-16T12:29:29.261Z,1452
2017-05-16T12:30:38.617Z,1452
2017-05-16T12:31:47.668Z,1472
2017-05-16T12:32:56.637Z,1492
2017-05-16T12:34:05.773Z,1484
2017-05-16T12:35:14.740Z,1464
2017-05-16T12:36:24.047Z,1424
2017-05-16T12:37:33.106Z,1400
2017-05-16T12:38:42.066Z,1408
2017-05-16T12:39:51.070Z,1420
2017-05-16T12:41:00.088Z,1436
2017-05-16T12:42:09.348Z,1476
2017-05-16T12:43:18.312Z,1476
2017-05-16T12:44:27.282Z,1468
2017-05-16T12:45:36.567Z,1504
2017-05-16T12:46:45.701Z,1544
2017-05-16T12:47:54.958Z,1592
2017-05-16T12:49:03.929Z,1644
2017-05-16T12:50:13.287Z,1672
2017-05-16T12:51:22.255Z,1716
2017-05-16T12:52:31.222Z,1784
2017-05-16T12:53:40.580Z,1896
2017-05-16T12:54:49.545Z,2028
2017-05-16T12:55:58.510Z,2164
2017-05-16T12:57:07.889Z,2296
2017-05-16T12:58:16.903Z,2436
2017-05-16T12:59:26.169Z,2560
2017-05-16T13:00:35.168Z,2652
2017-05-16T13:01:44.132Z,2732
2017-05-16T13:02:53.090Z,2804
2017-05-16T13:04:02.338Z,2788
2017-05-16T13:05:11.862Z,2748
2017-05-16T13:06:20.846Z,2728
2017-05-16T13:07:29.916Z,2764
2017-05-16T13:08:39.223Z,2752
2017-05-16T13:09:48.182Z,2736
2017-05-16T13:10:57.391Z,2736
2017-05-16T13:12:06.354Z,2704
2017-05-16T13:13:15.315Z,2632
2017-05-16T13:14:24.339Z,2552
2017-05-16T13:15:33.315Z,2472
2017-05-16T13:16:42.668Z,2404
2017-05-16T13:17:51.634Z,2352
2017-05-16T13:19:00.599Z,2304
2017-05-16T13:20:09.566Z,2264
2017-05-16T13:21:18.557Z,2308
2017-05-16T13:22:27.826Z,2272
2017-05-16T13:23:36.801Z,2252
2017-05-16T13:24:45.878Z,2220
2017-05-16T13:25:54.838Z,2284
2017-05-16T13:27:03.801Z,2280
2017-05-16T13:28:13.347Z,2248
2017-05-16T13:29:22.398Z,2220
2017-05-16T13:30:31.690Z,2212
2017-05-16T13:31:40.658Z,2192
2017-05-16T13:32:49.625Z,2136
2017-05-16T13:33:58.896Z,2120
2017-05-16T13:35:07.858Z,2148
2017-05-16T13:36:16.820Z,2252
2017-05-16T13:37:25.785Z,2288
2017-05-16T13:38:34.844Z,2336
2017-05-16T13:39:44.106Z,2320
2017-05-16T13:40:53.064Z,2264
2017-05-16T13:42:02.032Z,2212
2017-05-16T13:43:10.999Z,2212
2017-05-16T13:44:20.550Z,2280
2017-05-16T13:45:29.893Z,2388
2017-05-16T13:46:38.852Z,2596
2017-05-16T13:47:48.019Z,2660
2017-05-16T13:48:56.981Z,2792
2017-05-16T13:50:05.945Z,2864
2017-05-16T13:51:15.297Z,2904
2017-05-16T13:52:24.266Z,2900
2017-05-16T13:53:33.228Z,2856
2017-05-16T13:54:42.195Z,2772
2017-05-16T13:55:51.165Z,2708
2017-05-16T13:57:00.423Z,2656
2017-05-16T13:58:09.394Z,2640
2017-05-16T13:59:18.444Z,2624
2017-05-16T14:00:27.406Z,2544
2017-05-16T14:01:36.454Z,2468
2017-05-16T14:02:45.719Z,2548
2017-05-16T14:03:54.699Z,2512
2017-05-16T14:05:03.673Z,2504
2017-05-16T14:06:12.639Z,2476
2017-05-16T14:07:21.691Z,2496
2017-05-16T14:08:30.906Z,2524
2017-05-16T14:09:39.955Z,2528
2017-05-16T14:10:48.926Z,2472
2017-05-16T14:11:57.894Z,2460
2017-05-16T14:13:06.861Z,2472
2017-05-16T14:14:17.693Z,2440
2017-05-16T14:15:31.607Z,2436
2017-05-16T14:16:44.497Z,2424
2017-05-16T14:17:54.544Z,2356
2017-05-16T14:19:03.511Z,2280
2017-05-16T14:20:12.796Z,2280
2017-05-16T14:21:21.759Z,2284
2017-05-16T14:22:30.758Z,2264
2017-05-16T14:23:39.729Z,2184
2017-05-16T14:24:48.704Z,2116
2017-05-16T14:25:58.053Z,2068
2017-05-16T14:27:07.021Z,2024
2017-05-16T14:28:15.985Z,1996
2017-05-16T14:29:24.950Z,1984
2017-05-16T14:30:33.917Z,1944
2017-05-16T14:31:43.178Z,1872
2017-05-16T14:32:52.142Z,1816
2017-05-16T14:34:01.214Z,1716
2017-05-16T14:35:10.182Z,1620
2017-05-16T14:36:19.141Z,1532
2017-05-16T14:37:28.408Z,1516
2017-05-16T14:38:37.370Z,1496
2017-05-16T14:39:46.346Z,1496
2017-05-16T14:40:55.312Z,1484
2017-05-16T14:42:04.416Z,1476
2017-05-16T14:43:13.679Z,1548
2017-05-16T14:44:22.695Z,1676
2017-05-16T14:45:31.653Z,1844
2017-05-16T14:46:40.704Z,1964
2017-05-16T14:47:50.070Z,1980
2017-05-16T14:48:59.334Z,1892
2017-05-16T14:50:08.300Z,1736
2017-05-16T14:51:17.583Z,1620
2017-05-16T14:52:26.547Z,1600
2017-05-16T14:53:35.512Z,1628
2017-05-16T14:54:44.771Z,1664
2017-05-16T14:55:54.143Z,1688
2017-05-16T14:57:03.192Z,1736
2017-05-16T14:58:12.152Z,1808
2017-05-16T14:59:21.120Z,1888
2017-05-16T15:00:30.616Z,1956
2017-05-16T15:01:39.579Z,1972
2017-05-16T15:02:48.549Z,1948
2017-05-16T15:03:57.569Z,1900
2017-05-16T15:05:06.532Z,1844
2017-05-16T15:06:15.790Z,1748
2017-05-16T15:07:24.748Z,1600
2017-05-16T15:08:33.711Z,1488
2017-05-16T15:09:42.736Z,1460
2017-05-16T15:10:51.702Z,1476
2017-05-16T15:12:00.967Z,1480
2017-05-16T15:13:10.523Z,1444
2017-05-16T15:14:19.489Z,1388
2017-05-16T15:15:28.871Z,1296
2017-05-16T15:16:37.833Z,1180
2017-05-16T15:17:47.092Z,1080
2017-05-16T15:18:56.143Z,1056
2017-05-16T15:20:05.116Z,1064
2017-05-16T15:21:14.106Z,1104
2017-05-16T15:22:23.101Z,1120
2017-05-16T15:23:32.398Z,1120
2017-05-16T15:24:41.445Z,1088
2017-05-16T15:25:50.407Z,1032
2017-05-16T15:26:59.377Z,996
2017-05-16T15:28:08.335Z,988
2017-05-16T15:29:17.597Z,1000
2017-05-16T15:30:26.576Z,1000
2017-05-16T15:31:35.538Z,996
2017-05-16T15:32:44.604Z,980
2017-05-16T15:33:53.566Z,972
2017-05-16T15:35:03.437Z,980
2017-05-16T15:36:13.036Z,1020
2017-05-16T15:37:22.038Z,1028
2017-05-16T15:38:31.042Z,1016
2017-05-16T15:39:40.004Z,980
2017-05-16T15:40:49.268Z,948
2017-05-16T15:41:58.228Z,932
2017-05-16T15:43:07.192Z,936
2017-05-16T15:44:16.156Z,944
2017-05-16T15:45:25.183Z,972
2017-05-16T15:46:34.450Z,964
2017-05-16T15:47:43.416Z,976
2017-05-16T15:48:52.376Z,1004
2017-05-16T15:50:01.347Z,988